sensor_id;sensor_type;location;lat;lon;timestamp;pressure;altitude;pressure_sealevel;temperature;humidity
5126;BME280;63008;53.112;8.896;2022-10-31T00:00:30;101893.03;;;14.67;90.12
5126;BME280;63008;53.112;8.896;2022-10-31T00:02:32;101893.53;;;14.61;90.66
5126;BME280;63008;53.112;8.896;2022-10-31T00:04:33;101896.84;;;14.55;90.73
5126;BME280;63008;53.112;8.896;2022-10-31T00:06:34;101899.75;;;14.58;91.23
5126;BME280;63008;53.112;8.896;2022-10-31T00:08:35;101902.50;;;14.58;91.35
5126;BME280;63008;53.112;8.896;2022-10-31T00:10:40;101902.97;;;14.60;91.26
5126;BME280;63008;53.112;8.896;2022-10-31T00:12:42;101911.94;;;14.57;91.34
5126;BME280;63008;53.112;8.896;2022-10-31T00:14:42;101915.19;;;14.59;91.68
5126;BME280;63008;53.112;8.896;2022-10-31T00:16:43;101907.72;;;14.60;91.40
5126;BME280;63008;53.112;8.896;2022-10-31T00:18:48;101912.88;;;14.61;91.63
5126;BME280;63008;53.112;8.896;2022-10-31T00:20:58;101913.91;;;14.57;91.53
5126;BME280;63008;53.112;8.896;2022-10-31T00:23:00;101915.38;;;14.54;91.73
5126;BME280;63008;53.112;8.896;2022-10-31T00:25:02;101914.06;;;14.52;91.89
5126;BME280;63008;53.112;8.896;2022-10-31T00:27:04;101918.13;;;14.54;92.34
5126;BME280;63008;53.112;8.896;2022-10-31T00:29:05;101935.03;;;14.53;92.01
5126;BME280;63008;53.112;8.896;2022-10-31T00:31:08;101931.47;;;14.52;92.01
5126;BME280;63008;53.112;8.896;2022-10-31T00:33:09;101933.41;;;14.52;92.28
5126;BME280;63008;53.112;8.896;2022-10-31T00:35:10;101943.81;;;14.55;92.07
5126;BME280;63008;53.112;8.896;2022-10-31T00:37:11;101944.13;;;14.53;92.13
5126;BME280;63008;53.112;8.896;2022-10-31T00:39:12;101940.72;;;14.56;91.82
5126;BME280;63008;53.112;8.896;2022-10-31T00:41:15;101946.44;;;14.51;92.01
5126;BME280;63008;53.112;8.896;2022-10-31T00:43:17;101951.59;;;14.53;92.13
5126;BME280;63008;53.112;8.896;2022-10-31T00:45:18;101949.47;;;14.58;92.16
5126;BME280;63008;53.112;8.896;2022-10-31T00:47:19;101959.25;;;14.56;92.24
5126;BME280;63008;53.112;8.896;2022-10-31T00:49:19;101951.44;;;14.58;92.29
5126;BME280;63008;53.112;8.896;2022-10-31T00:51:20;101959.38;;;14.59;92.16
5126;BME280;63008;53.112;8.896;2022-10-31T00:53:21;101956.81;;;14.54;92.30
5126;BME280;63008;53.112;8.896;2022-10-31T00:55:22;101963.16;;;14.55;92.32
5126;BME280;63008;53.112;8.896;2022-10-31T00:57:23;101962.34;;;14.54;91.96
5126;BME280;63008;53.112;8.896;2022-10-31T00:59:24;101964.63;;;14.52;92.39
5126;BME280;63008;53.112;8.896;2022-10-31T01:01:25;101963.00;;;14.51;92.45
5126;BME280;63008;53.112;8.896;2022-10-31T01:03:29;101971.78;;;14.53;92.53
5126;BME280;63008;53.112;8.896;2022-10-31T01:05:31;101975.66;;;14.52;92.34
5126;BME280;63008;53.112;8.896;2022-10-31T01:07:35;101967.56;;;14.47;92.13
5126;BME280;63008;53.112;8.896;2022-10-31T01:09:37;101969.34;;;14.43;92.56
5126;BME280;63008;53.112;8.896;2022-10-31T01:11:38;101979.13;;;14.41;92.54
5126;BME280;63008;53.112;8.896;2022-10-31T01:13:39;101980.75;;;14.42;92.42
5126;BME280;63008;53.112;8.896;2022-10-31T01:15:40;101977.50;;;14.40;92.67
5126;BME280;63008;53.112;8.896;2022-10-31T01:17:41;101981.88;;;14.41;92.47
5126;BME280;63008;53.112;8.896;2022-10-31T01:19:42;101982.19;;;14.39;92.23
5126;BME280;63008;53.112;8.896;2022-10-31T01:21:43;101981.06;;;14.40;91.95
5126;BME280;63008;53.112;8.896;2022-10-31T01:23:44;101983.84;;;14.32;92.36
5126;BME280;63008;53.112;8.896;2022-10-31T01:25:45;101995.72;;;14.32;91.81
5126;BME280;63008;53.112;8.896;2022-10-31T01:27:49;101989.06;;;14.33;92.13
5126;BME280;63008;53.112;8.896;2022-10-31T01:29:50;101988.56;;;14.31;92.01
5126;BME280;63008;53.112;8.896;2022-10-31T01:31:51;101998.31;;;14.29;92.02
5126;BME280;63008;53.112;8.896;2022-10-31T01:33:52;101994.25;;;14.26;92.11
5126;BME280;63008;53.112;8.896;2022-10-31T01:35:54;101992.50;;;14.22;92.19
5126;BME280;63008;53.112;8.896;2022-10-31T01:37:55;101990.72;;;14.17;92.21
5126;BME280;63008;53.112;8.896;2022-10-31T01:39:56;101998.47;;;14.15;92.24
5126;BME280;63008;53.112;8.896;2022-10-31T01:41:56;101998.47;;;14.15;92.10
5126;BME280;63008;53.112;8.896;2022-10-31T01:44:43;101987.94;;;14.17;92.14
5126;BME280;63008;53.112;8.896;2022-10-31T01:46:27;101992.00;;;14.11;92.24
5126;BME280;63008;53.112;8.896;2022-10-31T01:48:28;101992.47;;;14.05;92.37
5126;BME280;63008;53.112;8.896;2022-10-31T01:50:35;101996.03;;;14.05;92.43
5126;BME280;63008;53.112;8.896;2022-10-31T01:52:43;101991.19;;;14.02;92.33
5126;BME280;63008;53.112;8.896;2022-10-31T01:54:53;101996.38;;;13.95;92.57
5126;BME280;63008;53.112;8.896;2022-10-31T01:56:56;102002.22;;;13.94;92.80
5126;BME280;63008;53.112;8.896;2022-10-31T01:58:59;102002.22;;;13.94;92.97
5126;BME280;63008;53.112;8.896;2022-10-31T02:01:03;101998.97;;;13.92;93.02
5126;BME280;63008;53.112;8.896;2022-10-31T02:03:04;101996.53;;;13.90;93.23
5126;BME280;63008;53.112;8.896;2022-10-31T02:05:09;101996.03;;;13.88;92.78
5126;BME280;63008;53.112;8.896;2022-10-31T02:07:13;101999.16;;;13.78;92.46
5126;BME280;63008;53.112;8.896;2022-10-31T02:09:16;102009.22;;;13.74;92.64
5126;BME280;63008;53.112;8.896;2022-10-31T02:11:17;102001.56;;;13.71;92.71
5126;BME280;63008;53.112;8.896;2022-10-31T02:13:19;102001.25;;;13.73;93.03
5126;BME280;63008;53.112;8.896;2022-10-31T02:15:20;101998.81;;;13.71;92.92
5126;BME280;63008;53.112;8.896;2022-10-31T02:17:21;102006.94;;;13.68;92.55
5126;BME280;63008;53.112;8.896;2022-10-31T02:19:43;102014.22;;;13.64;92.46
5126;BME280;63008;53.112;8.896;2022-10-31T02:21:54;102010.19;;;13.61;92.78
5126;BME280;63008;53.112;8.896;2022-10-31T02:26:45;102010.47;;;13.51;93.11
5126;BME280;63008;53.112;8.896;2022-10-31T02:29:02;102012.25;;;13.47;92.89
5126;BME280;63008;53.112;8.896;2022-10-31T02:31:25;102014.53;;;13.54;92.91
5126;BME280;63008;53.112;8.896;2022-10-31T02:38:02;102010.63;;;13.46;92.21
5126;BME280;63008;53.112;8.896;2022-10-31T02:40:11;102001.41;;;13.42;92.33
5126;BME280;63008;53.112;8.896;2022-10-31T02:42:18;102012.06;;;13.35;92.20
5126;BME280;63008;53.112;8.896;2022-10-31T02:44:44;102009.47;;;13.30;92.38
5126;BME280;63008;53.112;8.896;2022-10-31T02:46:55;102017.41;;;13.23;92.48
5126;BME280;63008;53.112;8.896;2022-10-31T02:49:06;102021.59;;;13.21;92.86
5126;BME280;63008;53.112;8.896;2022-10-31T02:51:09;102019.47;;;13.09;92.53
5126;BME280;63008;53.112;8.896;2022-10-31T02:53:14;102020.91;;;13.07;92.68
5126;BME280;63008;53.112;8.896;2022-10-31T02:57:29;102010.53;;;13.04;92.69
5126;BME280;63008;53.112;8.896;2022-10-31T02:59:33;102027.88;;;13.04;92.58
5126;BME280;63008;53.112;8.896;2022-10-31T03:02:01;102013.78;;;13.06;92.04
5126;BME280;63008;53.112;8.896;2022-10-31T03:09:24;102007.75;;;12.95;91.49
5126;BME280;63008;53.112;8.896;2022-10-31T03:11:41;102021.63;;;12.90;91.69
5126;BME280;63008;53.112;8.896;2022-10-31T03:13:51;102031.97;;;12.85;92.06
5126;BME280;63008;53.112;8.896;2022-10-31T03:16:14;102030.81;;;12.77;92.29
5126;BME280;63008;53.112;8.896;2022-10-31T03:18:32;102029.69;;;12.78;92.03
5126;BME280;63008;53.112;8.896;2022-10-31T03:20:45;102036.31;;;12.77;91.98
5126;BME280;63008;53.112;8.896;2022-10-31T03:22:48;102034.19;;;12.74;91.78
5126;BME280;63008;53.112;8.896;2022-10-31T03:24:50;102043.59;;;12.73;91.85
5126;BME280;63008;53.112;8.896;2022-10-31T03:26:55;102034.00;;;12.71;91.80
5126;BME280;63008;53.112;8.896;2022-10-31T03:29:02;102049.28;;;12.77;91.68
5126;BME280;63008;53.112;8.896;2022-10-31T03:31:04;102037.59;;;12.72;91.50
5126;BME280;63008;53.112;8.896;2022-10-31T03:33:08;102045.03;;;12.71;91.54
5126;BME280;63008;53.112;8.896;2022-10-31T03:35:13;102039.72;;;12.74;91.41
5126;BME280;63008;53.112;8.896;2022-10-31T03:37:18;102038.78;;;12.79;91.53
5126;BME280;63008;53.112;8.896;2022-10-31T03:39:21;102038.94;;;12.82;91.71
5126;BME280;63008;53.112;8.896;2022-10-31T03:41:25;102048.03;;;12.83;92.04
5126;BME280;63008;53.112;8.896;2022-10-31T03:43:33;102051.91;;;12.82;91.93
5126;BME280;63008;53.112;8.896;2022-10-31T03:45:41;102053.69;;;12.78;91.68
5126;BME280;63008;53.112;8.896;2022-10-31T03:47:44;102055.16;;;12.84;92.40
5126;BME280;63008;53.112;8.896;2022-10-31T03:49:45;102056.44;;;12.78;92.12
5126;BME280;63008;53.112;8.896;2022-10-31T03:51:55;102060.81;;;12.79;92.39
5126;BME280;63008;53.112;8.896;2022-10-31T03:54:08;102064.50;;;12.74;92.72
5126;BME280;63008;53.112;8.896;2022-10-31T03:58:39;102068.06;;;12.75;93.41
5126;BME280;63008;53.112;8.896;2022-10-31T04:00:44;102063.88;;;12.77;93.37
5126;BME280;63008;53.112;8.896;2022-10-31T04:02:52;102065.81;;;12.77;93.16
5126;BME280;63008;53.112;8.896;2022-10-31T04:04:54;102070.81;;;12.75;93.36
5126;BME280;63008;53.112;8.896;2022-10-31T04:06:57;102071.28;;;12.69;93.07
5126;BME280;63008;53.112;8.896;2022-10-31T04:09:03;102062.88;;;12.73;93.26
5126;BME280;63008;53.112;8.896;2022-10-31T04:11:06;102065.63;;;12.73;93.26
5126;BME280;63008;53.112;8.896;2022-10-31T04:13:12;102070.97;;;12.70;93.07
5126;BME280;63008;53.112;8.896;2022-10-31T04:15:14;102084.09;;;12.73;92.52
5126;BME280;63008;53.112;8.896;2022-10-31T04:17:19;102071.44;;;12.72;92.16
5126;BME280;63008;53.112;8.896;2022-10-31T04:19:21;102078.09;;;12.71;92.34
5126;BME280;63008;53.112;8.896;2022-10-31T04:21:29;102075.03;;;12.73;92.25
5126;BME280;63008;53.112;8.896;2022-10-31T04:23:31;102075.34;;;12.71;92.00
5126;BME280;63008;53.112;8.896;2022-10-31T04:25:33;102088.63;;;12.69;92.09
5126;BME280;63008;53.112;8.896;2022-10-31T04:27:34;102087.47;;;12.70;92.13
5126;BME280;63008;53.112;8.896;2022-10-31T04:29:35;102086.50;;;12.66;92.21
5126;BME280;63008;53.112;8.896;2022-10-31T04:31:36;102077.91;;;12.68;92.17
5126;BME280;63008;53.112;8.896;2022-10-31T04:33:37;102091.16;;;12.66;91.61
5126;BME280;63008;53.112;8.896;2022-10-31T04:35:38;102080.97;;;12.66;92.18
5126;BME280;63008;53.112;8.896;2022-10-31T04:37:40;102080.78;;;12.63;92.29
5126;BME280;63008;53.112;8.896;2022-10-31T04:39:41;102082.06;;;12.57;91.52
5126;BME280;63008;53.112;8.896;2022-10-31T04:41:42;102089.94;;;12.50;91.66
5126;BME280;63008;53.112;8.896;2022-10-31T04:43:43;102086.69;;;12.48;91.65
5126;BME280;63008;53.112;8.896;2022-10-31T04:45:44;102091.69;;;12.46;92.16
5126;BME280;63008;53.112;8.896;2022-10-31T04:47:45;102088.13;;;12.45;92.44
5126;BME280;63008;53.112;8.896;2022-10-31T04:49:45;102092.09;;;12.53;93.38
5126;BME280;63008;53.112;8.896;2022-10-31T04:51:46;102091.13;;;12.57;93.53
5126;BME280;63008;53.112;8.896;2022-10-31T04:53:47;102085.44;;;12.54;93.46
5126;BME280;63008;53.112;8.896;2022-10-31T04:55:48;102084.81;;;12.57;93.48
5126;BME280;63008;53.112;8.896;2022-10-31T04:57:49;102078.53;;;12.65;93.72
5126;BME280;63008;53.112;8.896;2022-10-31T04:59:51;102077.91;;;12.68;93.48
5126;BME280;63008;53.112;8.896;2022-10-31T05:01:52;102082.31;;;12.69;93.71
5126;BME280;63008;53.112;8.896;2022-10-31T05:03:53;102081.66;;;12.72;93.85
5126;BME280;63008;53.112;8.896;2022-10-31T05:05:54;102072.56;;;12.71;93.89
5126;BME280;63008;53.112;8.896;2022-10-31T05:07:55;102080.84;;;12.71;93.98
5126;BME280;63008;53.112;8.896;2022-10-31T05:09:56;102073.41;;;12.72;93.93
5126;BME280;63008;53.112;8.896;2022-10-31T05:11:57;102072.56;;;12.71;93.94
5126;BME280;63008;53.112;8.896;2022-10-31T05:13:58;102078.66;;;12.60;94.16
5126;BME280;63008;53.112;8.896;2022-10-31T05:15:59;102089.38;;;12.61;94.54
5126;BME280;63008;53.112;8.896;2022-10-31T05:18:01;102074.66;;;12.66;94.53
5126;BME280;63008;53.112;8.896;2022-10-31T05:20:02;102070.75;;;12.67;94.54
5126;BME280;63008;53.112;8.896;2022-10-31T05:22:03;102069.63;;;12.68;94.33
5126;BME280;63008;53.112;8.896;2022-10-31T05:24:05;102069.91;;;12.58;94.56
5126;BME280;63008;53.112;8.896;2022-10-31T05:26:06;102064.94;;;12.68;94.75
5126;BME280;63008;53.112;8.896;2022-10-31T05:28:07;102057.47;;;12.60;94.51
5126;BME280;63008;53.112;8.896;2022-10-31T05:30:09;102057.56;;;12.55;94.68
5126;BME280;63008;53.112;8.896;2022-10-31T05:32:10;102065.19;;;12.58;94.81
5126;BME280;63008;53.112;8.896;2022-10-31T05:34:11;102073.16;;;12.60;95.20
5126;BME280;63008;53.112;8.896;2022-10-31T05:36:12;102079.09;;;12.53;95.02
5126;BME280;63008;53.112;8.896;2022-10-31T05:38:13;102066.16;;;12.54;95.07
5126;BME280;63008;53.112;8.896;2022-10-31T05:40:16;102067.91;;;12.50;94.79
5126;BME280;63008;53.112;8.896;2022-10-31T05:42:17;102059.34;;;12.51;95.01
5126;BME280;63008;53.112;8.896;2022-10-31T05:44:18;102064.84;;;12.51;94.84
5126;BME280;63008;53.112;8.896;2022-10-31T05:46:19;102069.22;;;12.52;94.70
5126;BME280;63008;53.112;8.896;2022-10-31T05:48:20;102077.69;;;12.56;94.56
5126;BME280;63008;53.112;8.896;2022-10-31T05:50:22;102077.94;;;12.46;94.44
5126;BME280;63008;53.112;8.896;2022-10-31T05:52:23;102075.16;;;12.46;94.63
5126;BME280;63008;53.112;8.896;2022-10-31T05:54:24;102085.56;;;12.49;94.44
5126;BME280;63008;53.112;8.896;2022-10-31T05:56:25;102076.78;;;12.47;94.07
5126;BME280;63008;53.112;8.896;2022-10-31T05:58:26;102073.25;;;12.46;93.96
5126;BME280;63008;53.112;8.896;2022-10-31T06:00:27;102075.38;;;12.49;93.64
5126;BME280;63008;53.112;8.896;2022-10-31T06:02:28;102079.56;;;12.47;93.48
5126;BME280;63008;53.112;8.896;2022-10-31T06:04:32;102076.72;;;12.38;93.59
5126;BME280;63008;53.112;8.896;2022-10-31T06:06:33;102085.13;;;12.33;93.77
5126;BME280;63008;53.112;8.896;2022-10-31T06:08:35;102091.06;;;12.27;93.80
5126;BME280;63008;53.112;8.896;2022-10-31T06:10:38;102083.06;;;12.17;93.78
5126;BME280;63008;53.112;8.896;2022-10-31T06:12:39;102085.91;;;12.12;94.20
5126;BME280;63008;53.112;8.896;2022-10-31T06:14:41;102081.75;;;12.14;94.28
5126;BME280;63008;53.112;8.896;2022-10-31T06:16:42;102094.19;;;12.12;94.28
5126;BME280;63008;53.112;8.896;2022-10-31T06:18:43;102089.16;;;12.14;94.25
5126;BME280;63008;53.112;8.896;2022-10-31T06:20:44;102095.44;;;12.06;94.19
5126;BME280;63008;53.112;8.896;2022-10-31T06:22:45;102093.81;;;12.05;94.32
5126;BME280;63008;53.112;8.896;2022-10-31T06:24:46;102096.06;;;12.03;94.30
5126;BME280;63008;53.112;8.896;2022-10-31T06:26:47;102097.97;;;12.02;94.42
5126;BME280;63008;53.112;8.896;2022-10-31T06:28:48;102098.47;;;12.04;94.30
5126;BME280;63008;53.112;8.896;2022-10-31T06:30:48;102101.56;;;12.03;94.26
5126;BME280;63008;53.112;8.896;2022-10-31T06:32:49;102105.72;;;12.00;94.25
5126;BME280;63008;53.112;8.896;2022-10-31T06:34:50;102100.66;;;11.94;94.29
5126;BME280;63008;53.112;8.896;2022-10-31T06:36:51;102104.22;;;11.94;94.00
5126;BME280;63008;53.112;8.896;2022-10-31T06:38:52;102109.22;;;11.92;93.85
5126;BME280;63008;53.112;8.896;2022-10-31T06:40:54;102106.56;;;11.87;94.26
5126;BME280;63008;53.112;8.896;2022-10-31T06:43:01;102109.22;;;11.79;94.06
5126;BME280;63008;53.112;8.896;2022-10-31T06:45:02;102116.41;;;11.80;93.83
5126;BME280;63008;53.112;8.896;2022-10-31T06:47:05;102116.06;;;11.81;93.93
5126;BME280;63008;53.112;8.896;2022-10-31T06:49:06;102121.06;;;11.79;94.01
5126;BME280;63008;53.112;8.896;2022-10-31T06:51:07;102116.81;;;11.73;93.93
5126;BME280;63008;53.112;8.896;2022-10-31T06:53:08;102118.25;;;11.57;94.49
5126;BME280;63008;53.112;8.896;2022-10-31T06:55:09;102111.22;;;11.65;94.68
5126;BME280;63008;53.112;8.896;2022-10-31T06:57:10;102112.72;;;11.71;94.59
5126;BME280;63008;53.112;8.896;2022-10-31T06:59:11;102108.97;;;11.67;94.34
5126;BME280;63008;53.112;8.896;2022-10-31T07:01:12;102114.84;;;11.74;94.46
5126;BME280;63008;53.112;8.896;2022-10-31T07:03:15;102112.31;;;11.77;94.37
5126;BME280;63008;53.112;8.896;2022-10-31T07:05:16;102117.81;;;11.77;94.16
5126;BME280;63008;53.112;8.896;2022-10-31T07:07:17;102121.06;;;11.79;94.17
5126;BME280;63008;53.112;8.896;2022-10-31T07:09:18;102121.44;;;11.86;93.75
5126;BME280;63008;53.112;8.896;2022-10-31T07:11:19;102131.25;;;11.92;93.49
5126;BME280;63008;53.112;8.896;2022-10-31T07:13:20;102140.50;;;11.96;93.57
5126;BME280;63008;53.112;8.896;2022-10-31T07:15:27;102136.31;;;11.99;93.30
5126;BME280;63008;53.112;8.896;2022-10-31T07:17:28;102141.81;;;11.99;93.22
5126;BME280;63008;53.112;8.896;2022-10-31T07:19:29;102143.03;;;12.06;92.93
5126;BME280;63008;53.112;8.896;2022-10-31T07:23:34;102147.91;;;11.96;93.25
5126;BME280;63008;53.112;8.896;2022-10-31T07:25:34;102147.50;;;12.02;93.09
5126;BME280;63008;53.112;8.896;2022-10-31T07:27:39;102145.59;;;12.03;93.23
5126;BME280;63008;53.112;8.896;2022-10-31T07:29:41;102135.38;;;12.03;93.04
5126;BME280;63008;53.112;8.896;2022-10-31T07:31:42;102144.97;;;12.06;92.89
5126;BME280;63008;53.112;8.896;2022-10-31T07:33:44;102143.53;;;11.95;93.10
5126;BME280;63008;53.112;8.896;2022-10-31T07:35:45;102140.50;;;11.96;93.08
5126;BME280;63008;53.112;8.896;2022-10-31T07:37:47;102146.72;;;12.02;93.12
5126;BME280;63008;53.112;8.896;2022-10-31T07:39:48;102144.47;;;12.04;93.08
5126;BME280;63008;53.112;8.896;2022-10-31T07:41:49;102144.97;;;12.06;92.92
5126;BME280;63008;53.112;8.896;2022-10-31T07:43:50;102146.28;;;11.95;93.05
5126;BME280;63008;53.112;8.896;2022-10-31T07:45:51;102142.25;;;11.79;93.80
5126;BME280;63008;53.112;8.896;2022-10-31T07:47:53;102142.88;;;11.76;94.24
5126;BME280;63008;53.112;8.896;2022-10-31T07:49:54;102142.06;;;11.75;93.76
5126;BME280;63008;53.112;8.896;2022-10-31T07:51:55;102137.88;;;11.78;93.66
5126;BME280;63008;53.112;8.896;2022-10-31T07:53:56;102136.94;;;11.82;93.68
5126;BME280;63008;53.112;8.896;2022-10-31T07:55:57;102131.84;;;11.89;93.40
5126;BME280;63008;53.112;8.896;2022-10-31T07:58:12;102137.25;;;11.94;93.20
5126;BME280;63008;53.112;8.896;2022-10-31T08:00:13;102135.50;;;11.98;93.30
5126;BME280;63008;53.112;8.896;2022-10-31T08:02:14;102141.13;;;11.93;93.22
5126;BME280;63008;53.112;8.896;2022-10-31T08:04:15;102142.94;;;11.84;93.92
5126;BME280;63008;53.112;8.896;2022-10-31T08:06:16;102145.63;;;11.89;94.43
5126;BME280;63008;53.112;8.896;2022-10-31T08:08:17;102145.97;;;12.10;93.89
5126;BME280;63008;53.112;8.896;2022-10-31T08:10:18;102154.50;;;12.22;93.42
5126;BME280;63008;53.112;8.896;2022-10-31T08:12:19;102148.25;;;12.30;92.97
5126;BME280;63008;53.112;8.896;2022-10-31T08:14:20;102135.81;;;12.32;92.79
5126;BME280;63008;53.112;8.896;2022-10-31T08:16:23;102141.53;;;12.22;92.63
5126;BME280;63008;53.112;8.896;2022-10-31T08:18:23;102151.50;;;12.32;92.58
5126;BME280;63008;53.112;8.896;2022-10-31T08:20:25;102146.75;;;12.24;92.57
5126;BME280;63008;53.112;8.896;2022-10-31T08:22:26;102139.19;;;12.29;92.64
5126;BME280;63008;53.112;8.896;2022-10-31T08:24:27;102145.00;;;12.28;93.06
5126;BME280;63008;53.112;8.896;2022-10-31T08:26:28;102144.56;;;12.34;92.96
5126;BME280;63008;53.112;8.896;2022-10-31T08:28:28;102144.53;;;12.12;93.24
5126;BME280;63008;53.112;8.896;2022-10-31T08:30:31;102141.09;;;12.07;93.64
5126;BME280;63008;53.112;8.896;2022-10-31T08:32:32;102138.53;;;12.10;94.51
5126;BME280;63008;53.112;8.896;2022-10-31T08:34:33;102131.56;;;12.26;94.48
5126;BME280;63008;53.112;8.896;2022-10-31T08:36:34;102140.47;;;12.45;93.92
5126;BME280;63008;53.112;8.896;2022-10-31T08:38:35;102138.44;;;12.37;93.28
5126;BME280;63008;53.112;8.896;2022-10-31T08:40:37;102140.97;;;12.47;93.04
5126;BME280;63008;53.112;8.896;2022-10-31T08:42:38;102136.81;;;12.58;92.98
5126;BME280;63008;53.112;8.896;2022-10-31T08:44:39;102143.66;;;12.61;92.43
5126;BME280;63008;53.112;8.896;2022-10-31T08:46:40;102138.50;;;12.68;92.70
5126;BME280;63008;53.112;8.896;2022-10-31T08:48:41;102125.25;;;12.70;92.87
5126;BME280;63008;53.112;8.896;2022-10-31T08:50:43;102131.56;;;12.70;93.29
5126;BME280;63008;53.112;8.896;2022-10-31T08:52:44;102127.47;;;12.89;92.46
5126;BME280;63008;53.112;8.896;2022-10-31T08:54:45;102138.69;;;12.93;92.69
5126;BME280;63008;53.112;8.896;2022-10-31T08:56:46;102136.50;;;13.03;92.61
5126;BME280;63008;53.112;8.896;2022-10-31T08:58:47;102139.44;;;13.07;92.25
5126;BME280;63008;53.112;8.896;2022-10-31T09:00:50;102140.38;;;13.02;92.48
5126;BME280;63008;53.112;8.896;2022-10-31T09:02:59;102146.34;;;12.96;91.48
5126;BME280;63008;53.112;8.896;2022-10-31T09:05:00;102138.13;;;13.04;91.53
5126;BME280;63008;53.112;8.896;2022-10-31T09:07:01;102142.97;;;12.99;91.96
5126;BME280;63008;53.112;8.896;2022-10-31T09:09:02;102140.25;;;13.07;92.29
5126;BME280;63008;53.112;8.896;2022-10-31T09:11:04;102140.41;;;13.11;92.11
5126;BME280;63008;53.112;8.896;2022-10-31T09:13:13;102124.94;;;13.23;92.12
5126;BME280;63008;53.112;8.896;2022-10-31T09:15:14;102130.31;;;13.28;92.08
5126;BME280;63008;53.112;8.896;2022-10-31T09:17:15;102133.41;;;13.35;92.34
5126;BME280;63008;53.112;8.896;2022-10-31T09:19:16;102128.63;;;13.19;91.68
5126;BME280;63008;53.112;8.896;2022-10-31T09:21:17;102145.97;;;13.19;92.25
5126;BME280;63008;53.112;8.896;2022-10-31T09:23:20;102132.06;;;13.24;92.42
5126;BME280;63008;53.112;8.896;2022-10-31T09:25:21;102134.00;;;13.24;92.02
5126;BME280;63008;53.112;8.896;2022-10-31T09:27:22;102138.25;;;13.30;92.37
5126;BME280;63008;53.112;8.896;2022-10-31T09:29:23;102132.28;;;13.36;91.81
5126;BME280;63008;53.112;8.896;2022-10-31T09:31:24;102132.63;;;13.43;91.66
5126;BME280;63008;53.112;8.896;2022-10-31T09:33:25;102133.66;;;13.56;91.60
5126;BME280;63008;53.112;8.896;2022-10-31T09:35:27;102135.56;;;13.47;91.86
5126;BME280;63008;53.112;8.896;2022-10-31T09:37:28;102127.16;;;13.52;91.45
5126;BME280;63008;53.112;8.896;2022-10-31T09:39:29;102117.22;;;13.42;91.71
5126;BME280;63008;53.112;8.896;2022-10-31T09:46:01;102120.38;;;13.19;93.01
5126;BME280;63008;53.112;8.896;2022-10-31T09:48:37;102116.75;;;13.10;93.21
5126;BME280;63008;53.112;8.896;2022-10-31T09:50:49;102114.09;;;13.35;93.00
5126;BME280;63008;53.112;8.896;2022-10-31T09:52:59;102114.50;;;13.51;92.77
5126;BME280;63008;53.112;8.896;2022-10-31T09:55:14;102118.44;;;13.67;92.05
5126;BME280;63008;53.112;8.896;2022-10-31T09:57:22;102118.34;;;13.97;90.85
5126;BME280;63008;53.112;8.896;2022-10-31T09:59:31;102118.00;;;13.99;89.47
5126;BME280;63008;53.112;8.896;2022-10-31T10:01:45;102114.38;;;13.73;91.35
5126;BME280;63008;53.112;8.896;2022-10-31T10:03:50;102118.81;;;13.91;91.81
5126;BME280;63008;53.112;8.896;2022-10-31T10:08:11;102117.97;;;13.82;91.30
5126;BME280;63008;53.112;8.896;2022-10-31T10:10:46;102116.88;;;13.91;91.03
5126;BME280;63008;53.112;8.896;2022-10-31T10:13:18;102123.50;;;13.90;91.66
5126;BME280;63008;53.112;8.896;2022-10-31T10:17:52;102112.31;;;13.87;90.90
5126;BME280;63008;53.112;8.896;2022-10-31T10:20:09;102117.31;;;13.76;91.69
5126;BME280;63008;53.112;8.896;2022-10-31T10:22:36;102115.88;;;13.87;91.50
5126;BME280;63008;53.112;8.896;2022-10-31T10:25:04;102118.78;;;13.82;91.19
5126;BME280;63008;53.112;8.896;2022-10-31T10:27:26;102119.06;;;13.72;91.78
5126;BME280;63008;53.112;8.896;2022-10-31T10:29:36;102116.50;;;13.76;91.88
5126;BME280;63008;53.112;8.896;2022-10-31T10:31:41;102115.38;;;13.85;92.06
5126;BME280;63008;53.112;8.896;2022-10-31T10:36:03;102118.09;;;13.68;91.18
5126;BME280;63008;53.112;8.896;2022-10-31T10:38:26;102116.34;;;13.81;91.85
5126;BME280;63008;53.112;8.896;2022-10-31T10:40:30;102116.47;;;13.67;91.50
5126;BME280;63008;53.112;8.896;2022-10-31T10:42:31;102110.78;;;13.72;91.62
5126;BME280;63008;53.112;8.896;2022-10-31T10:44:50;102110.50;;;13.82;91.48
5126;BME280;63008;53.112;8.896;2022-10-31T10:47:10;102113.78;;;14.01;91.30
5126;BME280;63008;53.112;8.896;2022-10-31T10:49:44;102117.72;;;14.17;90.25
5126;BME280;63008;53.112;8.896;2022-10-31T10:54:13;102103.25;;;14.37;90.89
5126;BME280;63008;53.112;8.896;2022-10-31T10:56:30;102106.84;;;14.38;90.54
5126;BME280;63008;53.112;8.896;2022-10-31T10:58:33;102105.22;;;14.45;90.13
5126;BME280;63008;53.112;8.896;2022-10-31T11:00:41;102107.63;;;14.55;89.37
5126;BME280;63008;53.112;8.896;2022-10-31T11:02:42;102108.25;;;14.77;89.97
5126;BME280;63008;53.112;8.896;2022-10-31T11:04:47;102096.16;;;14.99;87.97
5126;BME280;63008;53.112;8.896;2022-10-31T11:07:01;102105.09;;;15.50;86.75
5126;BME280;63008;53.112;8.896;2022-10-31T11:09:08;102094.94;;;15.83;84.91
5126;BME280;63008;53.112;8.896;2022-10-31T11:11:29;102102.41;;;16.12;83.95
5126;BME280;63008;53.112;8.896;2022-10-31T11:13:33;102097.41;;;16.05;84.43
5126;BME280;63008;53.112;8.896;2022-10-31T11:15:39;102099.31;;;16.13;83.90
5126;BME280;63008;53.112;8.896;2022-10-31T11:17:52;102098.47;;;15.92;83.35
5126;BME280;63008;53.112;8.896;2022-10-31T11:22:07;102097.00;;;16.36;83.12
5126;BME280;63008;53.112;8.896;2022-10-31T11:26:21;102097.25;;;15.81;84.38
5126;BME280;63008;53.112;8.896;2022-10-31T11:28:22;102096.25;;;15.86;83.85
5126;BME280;63008;53.112;8.896;2022-10-31T11:30:23;102091.97;;;15.88;84.56
5126;BME280;63008;53.112;8.896;2022-10-31T11:32:26;102090.22;;;15.84;84.72
5126;BME280;63008;53.112;8.896;2022-10-31T11:34:32;102098.66;;;15.87;85.32